hero-logo

Top 15 Knowers of PGNX Progenics Pharmaceuticals - 2017-07-21

Rank Fund Result (K)
1 Park West Asset Management Llc $1,007
2 Guggenheim Capital Llc $218
3 Gotham Asset Management Llc $117
4 Ardsley Advisory Partners $86
5 Eam Investors Llc $62
6 Jane Street Group Llc $40
7 Opus Point Partners Management Llc $34
8 Mason Street Advisors Llc $13
9 A R T Advisors Llc $12
10 First Republic Investment Management Inc $11
11 Squarepoint Ops Llc $10
12 Glen Harbor Capital Management Llc $2
13 Raymond James Associates $2
14 Meadow Creek Investment Management Llc $2
15 Riverhead Capital Management Llc $1
Price Chart and News From Google Finance for PGNX Progenics Pharmaceuticals
Owner Date Shares Change Price Change Result (K)
Acrospire Investment Management Llc 2017-03-31 -27,499 $0.80 $-21
Advantage Investment Management Llc 2017-03-31 0 $0.80 $0
Ardsley Advisory Partners 2017-03-31 108,500 $0.80 $86
A R T Advisors Llc 2017-03-31 15,600 $0.80 $12
Baker Bros Advisors Lp 2017-03-31 0 $0.80 $0
Blair William Co Il 2017-03-31 0 $0.80 $0
Bogle Investment Management L P De 2017-03-31 -115,008 $0.80 $-92
Broadfin Capital Llc 2017-03-31 -6,952,638 $0.80 $-5,562
California State Teachers Retirement System 2017-03-31 -6,400 $0.80 $-5
Cornerstone Capital Management Holdings Llc 2017-03-31 -33,500 $0.80 $-26
Eam Investors Llc 2017-03-31 77,912 $0.80 $62
Ellington Management Group Llc 2017-03-31 -13,000 $0.80 $-10
Envestnet Asset Management Inc 2017-03-31 -8 $0.80 $0
First Republic Investment Management Inc 2017-03-31 14,572 $0.80 $11
Glen Harbor Capital Management Llc 2017-03-31 3,724 $0.80 $2
Gotham Asset Management Llc 2017-03-31 147,177 $0.80 $117
Group One Trading L P 2017-03-31 -12,390 $0.80 $-9
Gsa Capital Partners Llp 2017-03-31 -18,890 $0.80 $-15
Guggenheim Capital Llc 2017-03-31 272,801 $0.80 $218
Horizon Kinetics Llc 2017-03-31 60 $0.80 $0
Ifp Advisors Inc 2017-03-31 0 $0.80 $0
Jane Street Group Llc 2017-03-31 50,488 $0.80 $40
Ladenburg Thalmann Financial Services Inc 2017-03-31 0 $0.80 $0
Mason Street Advisors Llc 2017-03-31 16,380 $0.80 $13
Meadow Creek Investment Management Llc 2017-03-31 2,926 $0.80 $2
Opus Point Partners Management Llc 2017-03-31 43,565 $0.80 $34
Paloma Partners Management Co 2017-03-31 -13,992 $0.80 $-11
Park West Asset Management Llc 2017-03-31 1,259,910 $0.80 $1,007
Pinkerton Retirement Specialists Llc 2017-03-31 -80 $0.80 $0
Raymond James Associates 2017-03-31 3,653 $0.80 $2
Riverhead Capital Management Llc 2017-03-31 2,400 $0.80 $1
Squarepoint Ops Llc 2017-03-31 13,740 $0.80 $10
Stifel Financial Corp 2017-03-31 -14,711 $0.80 $-11
Walleye Trading Llc 2017-03-31 -6,200 $0.80 $-4